Weather at Canlubang Airstrip [CLOSED]

Public forecast

Using degrees Celsius for public forecast. Weather courtesy of forecast.io.

Closest aviation weather report (METAR) to Canlubang Airstrip

Closest report is Ninoy Aquino International Airport, 17.7 nm (32.8 km) NNW.

2024/07/20 14:00 (retrieved 57 minutes ago)

RPLL 201400Z VRB02KT 9999 SCT025 BKN100 29/25 Q1010 NOSIG RMK A2983

Closest aviation forecast (TAF) to Canlubang Airstrip

Closest forecast is Ninoy Aquino International Airport, 17.7 nm (32.8 km) NNW.

2024/07/20 12:00 (retrieved 3 hours ago)

TAF RPLL 201100Z 2012/2118 26007KT 9999 SCT025 BKN100 TX31/2106Z TN27/2021Z TEMPO 2012/2018 FEW023CB BKN100 TEMPO 2106/2112 26010G20KT -TSRA SCT023CB OVC090 BECMG 2112/2114 26014KT 7000 -SHRA SCT023 OVC090